CBK7 weather

Mile 422 (Alaska Highway) Airport
Toad River, British Columbia, Canada

Public forecast

Using degrees Celsius for public forecast. Weather courtesy of forecast.io.

Closest aviation weather report (METAR) to Mile 422 (Alaska Highway) Airport

Closest report is Fort Nelson Airport, 82.1 nm (152.1 km) E. Retrieved 2019/10/18 15:36 UTC (7 minutes ago):

CYYE 181536Z 33003KT 10SM BKN017 OVC085 M00/M01 A2936 RMK SC6AC2 CIG RAG SLP963

Closest aviation forecast (TAF) to Mile 422 (Alaska Highway) Airport

Closest forecast is Fort Nelson Airport, 82.1 nm (152.1 km) E. Retrieved 2019/10/18 13:39 UTC (2 hours ago):

TAF CYYE 181238Z 1813/1901 VRB03KT P6SM OVC010 TEMPO 1813/1901 5SM -SN OVC005 RMK NXT FCST BY 181900Z